This is the latest recevied weather packets stored in our database for station/object K3MV-13. If no packets are shown the sender has not sent any weather packets the latest 1 day(s).
| Time | Temp. | Humidity | Pressure | Rain* | Wind** | Luminosity | Snow |
|---|---|---|---|---|---|---|---|
| 1777976189 | 14.44° C | 66% | 1011 hPa | 0 mm | 1.34 m/s, 253° | 2 W/m² | - |
| 1777975885 | 14.44° C | 66% | 1010.7 hPa | 0 mm | 0.45 m/s, 216° | 1 W/m² | - |
| 1777975581 | 15° C | 66% | 1010.9 hPa | 0 mm | 0.45 m/s, 154° | 1 W/m² | - |
| 1777975278 | 15° C | 66% | 1010.9 hPa | 0 mm | 0.89 m/s, 215° | 0 W/m² | - |
| 1777974974 | 14.44° C | 67% | 1010.6 hPa | 0 mm | 0.89 m/s, 175° | 0 W/m² | - |
| 1777974671 | 14.44° C | 68% | 1010.6 hPa | 0 mm | 1.34 m/s, 245° | 0 W/m² | - |
| 1777974368 | 14.44° C | 68% | 1010.7 hPa | 0 mm | 0.45 m/s, 207° | 0 W/m² | - |
| 1777974064 | 14.44° C | 70% | 1010.5 hPa | 0 mm | 0.89 m/s, 216° | 0 W/m² | - |
| 1777973760 | 13.89° C | 71% | 1010.4 hPa | 0 mm | 0.89 m/s, 199° | 0 W/m² | - |
| 1777973458 | 12.78° C | 76% | 1010.5 hPa | 0 mm | 0.45 m/s, 194° | 0 W/m² | - |
| 1777973155 | 12.78° C | 78% | 1010.5 hPa | 0 mm | 0.89 m/s, 165° | 0 W/m² | - |
| 1777972854 | 13.33° C | 76% | 1010.4 hPa | 0 mm | 0.45 m/s, 180° | 0 W/m² | - |
| 1777972550 | 13.33° C | 75% | 1010.4 hPa | 0 mm | 0.45 m/s, 174° | 0 W/m² | - |
| 1777972248 | 13.33° C | 73% | 1010.4 hPa | 0 mm | 0.89 m/s, 139° | 0 W/m² | - |
| 1777971946 | 13.89° C | 71% | 1010.6 hPa | 0 mm | 0.45 m/s, 154° | 0 W/m² | - |
| 1777971644 | 13.33° C | 72% | 1010.8 hPa | 0 mm | 0 m/s | 0 W/m² | - |
| 1777971341 | 13.89° C | 72% | 1010.7 hPa | 0 mm | 0 m/s | 0 W/m² | - |
| 1777971039 | 13.89° C | 71% | 1010.6 hPa | 0 mm | 0 m/s | 0 W/m² | - |
| 1777970737 | 14.44° C | 71% | 1010.5 hPa | 0 mm | 0 m/s | 0 W/m² | - |
| 1777970435 | 14.44° C | 69% | 1010.4 hPa | 0 mm | 0 m/s | 0 W/m² | - |
| 1777970132 | 15° C | 66% | 1010.4 hPa | 0 mm | 0 m/s | 0 W/m² | - |
| 1777969828 | 15° C | 65% | 1010.4 hPa | 0 mm | 0 m/s | 0 W/m² | - |
| 1777969524 | 15.56° C | 63% | 1010.4 hPa | 0 mm | 0 m/s | 0 W/m² | - |
| 1777969221 | 15° C | 62% | 1010.2 hPa | 0 mm | 1.34 m/s, 201° | 0 W/m² | - |
| 1777968917 | 15° C | 61% | 1010.4 hPa | 0 mm | 0.89 m/s, 241° | 0 W/m² | - |
* Rain latest hour (hover to see other rain measurements)
** Current wind speed in m/s (hover to see current wind gust speed)